Time;durP1;ratioP1;P1;durP2;ratioP2;P2;SDS_P1;SDS_P2;PMS_P1;PMS_P2;Temp;Humidity;BMP_temperature;BMP_pressure;BME280_temperature;BME280_humidity;BME280_pressure;Samples;Min_cycle;Max_cycle;Signal;HPM_P1;HPM_P2
2022/09/22 00:01:27;;;;;;;5.87;3.22;;;;;;;10.82;94.72;101203.72;1649270;85;27645;-80
2022/09/22 00:03:57;;;;;;;6.00;3.40;;;;;;;10.82;94.69;101199.70;1660620;85;25963;-81
2022/09/22 00:06:28;;;;;;;9.03;3.50;;;;;;;10.84;94.75;101198.52;1649525;85;25950;-81
2022/09/22 00:09:01;;;;;;;5.25;4.40;;;;;;;10.89;94.71;101202.02;1661829;85;26704;-81
2022/09/22 00:11:34;;;;;;;4.92;3.27;;;;;;;10.88;94.59;101198.19;1647004;85;25762;-80
2022/09/22 00:14:08;;;;;;;8.60;3.62;;;;;;;10.89;94.52;101198.00;1645492;85;27451;-80
2022/09/22 00:16:39;;;;;;;4.72;3.33;;;;;;;10.88;94.45;101192.83;1644861;85;25666;-81
2022/09/22 00:19:08;;;;;;;5.03;3.20;;;;;;;10.88;94.37;101201.71;1644200;85;25333;-80
2022/09/22 00:21:35;;;;;;;4.53;3.42;;;;;;;10.87;94.29;101190.64;1669286;85;26549;-81
2022/09/22 00:24:05;;;;;;;4.22;3.15;;;;;;;10.86;94.16;101197.84;1654852;85;25861;-79
2022/09/22 00:26:32;;;;;;;8.27;3.53;;;;;;;10.84;94.43;101197.71;1637667;86;27526;-80
2022/09/22 00:29:00;;;;;;;5.35;3.47;;;;;;;10.84;94.43;101197.71;1605793;88;25747;-80
2022/09/22 00:31:28;;;;;;;5.03;2.80;;;;;;;10.82;93.84;101198.36;1613002;87;25920;-81
2022/09/22 00:33:55;;;;;;;3.55;2.87;;;;;;;10.79;93.72;101197.39;1618819;87;25858;-80
2022/09/22 00:36:26;;;;;;;5.95;3.02;;;;;;;10.75;93.65;101195.56;1652930;85;25974;-80
2022/09/22 00:38:55;;;;;;;6.67;3.50;;;;;;;10.74;93.55;101200.58;1642914;85;27531;-81
2022/09/22 00:41:26;;;;;;;6.03;3.40;;;;;;;10.69;93.47;101201.59;1664092;85;25814;-80
2022/09/22 00:44:27;;;;;;;3.87;3.22;;;;;;;10.63;93.46;101198.27;1659598;85;26588;-81
2022/09/22 00:47:02;;;;;;;5.35;3.15;;;;;;;10.58;93.44;101199.81;1655151;85;26351;-81
2022/09/22 00:49:42;;;;;;;5.35;2.98;;;;;;;10.47;93.49;101199.67;1655818;85;25905;-79
2022/09/22 00:52:12;;;;;;;5.85;2.85;;;;;;;10.41;93.60;101196.34;1658632;85;28126;-79
2022/09/22 00:54:39;;;;;;;5.05;2.75;;;;;;;10.36;93.57;101196.51;1670967;84;25866;-80
2022/09/22 00:57:16;;;;;;;4.62;3.17;;;;;;;10.31;93.71;101193.00;1663050;85;25775;-80
2022/09/22 00:59:45;;;;;;;4.55;2.70;;;;;;;10.31;93.84;101192.19;1653192;85;26392;-80
2022/09/22 01:02:11;;;;;;;6.15;3.10;;;;;;;10.29;93.69;101192.83;1655042;84;25854;-79
2022/09/22 01:04:40;;;;;;;5.28;3.20;;;;;;;10.27;93.68;101197.52;1657412;84;27461;-81
2022/09/22 01:07:07;;;;;;;3.60;2.83;;;;;;;10.25;93.64;101193.69;1650073;84;25850;-80
2022/09/22 01:09:34;;;;;;;6.20;2.92;;;;;;;10.24;93.52;101195.20;1658929;84;26037;-80
2022/09/22 01:12:03;;;;;;;5.83;3.00;;;;;;;10.22;93.45;101195.87;1655527;85;26775;-82
2022/09/22 01:14:55;;;;;;;5.72;3.20;;;;;;;10.16;93.28;101197.38;1653149;85;25961;-80
2022/09/22 01:17:46;;;;;;;5.83;3.40;;;;;;;10.14;93.22;101195.90;1647829;85;27477;-79
2022/09/22 01:20:16;;;;;;;;;;;;;;;10.09;93.26;101194.50;1666347;84;26418;-79
2022/09/22 01:23:14;;;;;;;5.20;3.12;;;;;;;10.04;93.12;101189.33;1657014;85;26424;-80
2022/09/22 01:26:21;;;;;;;6.28;3.17;;;;;;;10.01;93.17;101189.66;1657804;85;26563;-79
2022/09/22 01:28:59;;;;;;;7.60;3.55;;;;;;;9.98;93.21;101189.52;1645700;85;25765;-80
2022/09/22 01:31:39;;;;;;;6.55;3.67;;;;;;;9.95;93.22;101193.02;1655763;85;27477;-79
2022/09/22 01:34:30;;;;;;;7.05;2.87;;;;;;;9.92;92.98;101188.02;1655857;85;25854;-80
2022/09/22 01:37:27;;;;;;;4.95;3.05;;;;;;;9.87;93.01;101185.84;1674312;85;32564;-80
2022/09/22 01:40:02;;;;;;;4.40;3.02;;;;;;;9.87;93.10;101183.16;1659587;85;25932;-82
2022/09/22 01:42:36;;;;;;;4.47;3.33;;;;;;;9.86;92.93;101183.31;1656502;84;26071;-81
2022/09/22 01:45:16;;;;;;;6.90;3.90;;;;;;;9.82;92.76;101188.66;1667339;84;28326;-81
2022/09/22 01:47:52;;;;;;;5.83;3.05;;;;;;;9.76;92.74;101182.16;1653020;85;25957;-79
2022/09/22 01:50:27;;;;;;;7.90;3.80;;;;;;;9.72;92.65;101182.66;1658396;85;26194;-81
2022/09/22 01:52:58;;;;;;;5.17;3.33;;;;;;;9.68;92.58;101186.67;1650541;85;25961;-81
2022/09/22 01:55:32;;;;;;;5.22;2.98;;;;;;;9.60;92.62;101192.83;1651067;85;25947;-81
2022/09/22 01:58:10;;;;;;;6.40;3.67;;;;;;;9.54;92.53;101193.50;1643591;85;27486;-79
2022/09/22 02:00:43;;;;;;;4.67;3.42;;;;;;;9.50;92.65;101192.66;1656448;84;26146;-79
2022/09/22 02:03:15;;;;;;;5.08;3.60;;;;;;;9.47;92.82;101193.84;1656559;85;25809;-81
2022/09/22 02:05:52;;;;;;;6.17;3.62;;;;;;;9.48;92.82;101200.01;1645072;85;25857;-80
2022/09/22 02:08:32;;;;;;;8.08;4.15;;;;;;;9.46;92.88;101198.84;1652079;85;26640;-79
2022/09/22 02:11:04;;;;;;;5.95;3.47;;;;;;;9.43;92.84;101197.83;1659270;85;27449;-79
2022/09/22 02:13:31;;;;;;;4.97;3.40;;;;;;;9.38;92.88;101202.01;1655400;85;26375;-81
2022/09/22 02:16:00;;;;;;;6.65;3.45;;;;;;;9.34;92.98;101198.84;1660653;85;26399;-80
2022/09/22 02:18:43;;;;;;;8.13;3.80;;;;;;;9.33;93.12;101202.50;1651362;85;25813;-80
2022/09/22 02:21:11;;;;;;;6.47;3.60;;;;;;;9.34;93.29;101203.66;1646936;85;25788;-80
2022/09/22 02:23:38;;;;;;;7.92;3.40;;;;;;;9.36;93.29;101204.02;1653372;85;28278;-80
2022/09/22 02:26:06;;;;;;;6.87;3.75;;;;;;;9.33;93.24;101203.83;1661536;85;25869;-80
2022/09/22 02:28:37;;;;;;;6.45;4.37;;;;;;;9.32;93.29;101204.85;1654393;85;25857;-80
2022/09/22 02:31:08;;;;;;;6.20;4.58;;;;;;;9.30;93.39;101204.18;1648783;85;26319;-81
2022/09/22 02:33:38;;;;;;;4.92;3.92;;;;;;;9.31;93.58;101204.50;1646897;85;25908;-80
2022/09/22 02:36:19;;;;;;;6.25;3.62;;;;;;;9.31;93.54;101201.33;1646681;85;27491;-80
2022/09/22 02:39:09;;;;;;;4.72;3.55;;;;;;;9.32;93.63;101198.17;1659072;85;25906;-80
2022/09/22 02:42:04;;;;;;;4.85;3.37;;;;;;;9.28;93.56;101204.84;1642265;85;25786;-80
2022/09/22 02:44:45;;;;;;;4.65;3.80;;;;;;;9.26;93.61;101199.64;1640584;85;26563;-80
2022/09/22 02:47:26;;;;;;;5.30;3.85;;;;;;;9.25;93.75;101206.50;1659510;85;26446;-80
2022/09/22 02:49:54;;;;;;;;;;;;;;;9.28;93.86;101201.64;1632935;86;27579;-79
2022/09/22 02:52:23;;;;;;;5.55;3.25;;;;;;;9.30;93.79;101198.31;1613452;87;25936;-80
2022/09/22 02:54:52;;;;;;;5.22;3.65;;;;;;;9.30;93.84;101196.16;1641814;85;25839;-80
2022/09/22 02:57:19;;;;;;;6.62;3.35;;;;;;;9.30;93.83;101193.48;1639772;85;25848;-80
2022/09/22 02:59:46;;;;;;;4.85;3.65;;;;;;;9.29;93.77;101193.14;1612277;87;25346;-81
2022/09/22 03:02:12;;;;;;;5.67;3.83;;;;;;;9.28;93.75;101196.83;1623351;87;27456;-80
2022/09/22 03:04:38;;;;;;;6.30;3.85;;;;;;;9.24;93.60;101206.98;1620321;86;26000;-80
2022/09/22 03:07:05;;;;;;;5.03;3.80;;;;;;;9.21;93.68;101205.16;1615104;87;26381;-80
2022/09/22 03:09:32;;;;;;;5.67;3.80;;;;;;;9.18;93.64;101200.97;1653865;85;25839;-80
2022/09/22 03:11:59;;;;;;;5.95;3.95;;;;;;;9.15;93.63;101205.81;1648009;84;25751;-80
2022/09/22 03:14:25;;;;;;;6.72;3.87;;;;;;;9.13;93.67;101205.14;1648339;85;27466;-79
2022/09/22 03:16:52;;;;;;;7.53;3.75;;;;;;;9.11;93.69;101207.95;1654521;85;26470;-80
2022/09/22 03:19:18;;;;;;;6.22;3.87;;;;;;;9.09;93.61;101209.11;1615317;87;25881;-79
2022/09/22 03:21:44;;;;;;;6.60;3.90;;;;;;;9.08;93.66;101206.11;1572643;89;26701;-79
2022/09/22 03:24:11;;;;;;;5.60;3.72;;;;;;;9.09;93.66;101207.28;1659547;85;25822;-80
2022/09/22 03:26:37;;;;;;;5.35;3.62;;;;;;;9.08;93.59;101204.28;1668060;85;27477;-80
2022/09/22 03:29:03;;;;;;;7.92;4.17;;;;;;;9.08;93.59;101206.95;1651975;85;25956;-80
2022/09/22 03:31:30;;;;;;;8.30;4.17;;;;;;;9.08;93.56;101210.97;1659605;85;25826;-80
2022/09/22 03:33:56;;;;;;;6.12;4.00;;;;;;;9.07;93.44;101205.76;1650325;85;25930;-79
2022/09/22 03:36:22;;;;;;;6.92;4.30;;;;;;;9.07;93.46;101203.09;1651992;85;25828;-81
2022/09/22 03:38:50;;;;;;;5.85;4.05;;;;;;;9.06;93.36;101208.11;1640818;85;27565;-82
2022/09/22 03:41:18;;;;;;;7.37;4.22;;;;;;;9.04;93.45;101204.27;1647281;85;25887;-79
2022/09/22 03:43:44;;;;;;;8.63;4.70;;;;;;;9.03;93.46;101209.76;1644362;85;25919;-80
2022/09/22 03:46:12;;;;;;;6.00;4.03;;;;;;;9.01;93.43;101213.94;1655951;85;25817;-79
2022/09/22 03:48:39;;;;;;;8.03;5.42;;;;;;;8.99;93.61;101209.26;1640086;85;25943;-81
2022/09/22 03:51:05;;;;;;;7.87;4.58;;;;;;;8.98;93.73;101208.91;1647578;85;27450;-79
2022/09/22 03:53:32;;;;;;;5.87;4.42;;;;;;;9.00;93.87;101211.44;1645650;85;25352;-80
2022/09/22 03:56:13;;;;;;;6.25;4.50;;;;;;;9.01;93.90;101204.59;1648461;85;26552;-79
2022/09/22 03:58:41;;;;;;;5.42;4.08;;;;;;;8.98;93.72;101208.09;1628887;86;25858;-81
2022/09/22 04:01:10;;;;;;;5.67;4.55;;;;;;;8.96;94.02;101211.42;1645021;85;25771;-81
2022/09/22 04:03:37;;;;;;;9.95;4.03;;;;;;;8.96;94.03;101212.77;1650106;85;28334;-80
2022/09/22 04:06:06;;;;;;;6.05;4.40;;;;;;;8.95;94.04;101213.75;1651429;85;26218;-80
2022/09/22 04:08:32;;;;;;;6.47;4.08;;;;;;;8.90;94.10;101208.88;1646074;85;25750;-80
2022/09/22 04:10:59;;;;;;;7.40;4.42;;;;;;;8.86;94.12;101213.37;1647401;85;26723;-80
2022/09/22 04:13:26;;;;;;;7.62;4.35;;;;;;;8.86;94.28;101206.69;1646722;85;26399;-80
2022/09/22 04:15:53;;;;;;;9.20;4.80;;;;;;;8.87;94.42;101210.56;1644051;85;27504;-79
2022/09/22 04:18:19;;;;;;;6.78;4.50;;;;;;;8.87;94.46;101209.72;1625284;87;25334;-81
2022/09/22 04:20:45;;;;;;;6.92;4.90;;;;;;;8.90;94.55;101209.38;1606551;87;25890;-80
2022/09/22 04:23:14;;;;;;;6.53;4.30;;;;;;;8.92;94.65;101214.05;1603285;88;26478;-80
2022/09/22 04:25:41;;;;;;;6.83;5.35;;;;;;;8.94;94.63;101209.42;1654781;84;25356;-80
2022/09/22 04:28:07;;;;;;;7.75;4.78;;;;;;;8.96;94.59;101212.77;1652204;85;27472;-82
2022/09/22 04:30:35;;;;;;;8.48;5.05;;;;;;;8.94;94.70;101214.23;1651738;84;26504;-80
2022/09/22 04:33:02;;;;;;;8.15;4.95;;;;;;;8.94;94.67;101211.56;1648419;85;25841;-80
2022/09/22 04:35:29;;;;;;;7.60;4.03;;;;;;;8.94;94.70;101214.77;1657319;85;26470;-79
2022/09/22 04:37:56;;;;;;;5.80;4.35;;;;;;;8.91;94.71;101208.39;1650869;84;26493;-79
2022/09/22 04:40:24;;;;;;;8.38;5.00;;;;;;;8.91;94.81;101213.24;1650559;85;28291;-80
2022/09/22 04:42:51;;;;;;;8.50;4.92;;;;;;;8.94;94.95;101212.09;1649458;85;26312;-80
2022/09/22 04:45:17;;;;;;;5.55;4.45;;;;;;;8.96;95.02;101219.44;1667907;85;25324;-79
2022/09/22 04:47:48;;;;;;;8.05;5.05;;;;;;;8.98;95.07;101214.77;1649799;85;26489;-79
2022/09/22 04:50:17;;;;;;;7.20;5.05;;;;;;;8.98;94.94;101220.93;1638768;85;25985;-80
2022/09/22 04:52:50;;;;;;;6.10;4.75;;;;;;;8.98;95.07;101212.91;1650319;84;27645;-80
2022/09/22 04:55:17;;;;;;;8.83;4.67;;;;;;;9.01;95.09;101217.10;1648849;85;25940;-79
2022/09/22 04:57:55;;;;;;;5.55;4.45;;;;;;;9.01;95.09;101221.95;1651744;84;26192;-80
2022/09/22 05:00:25;;;;;;;8.75;4.40;;;;;;;9.02;95.00;101229.48;1652772;85;26590;-80
2022/09/22 05:02:51;;;;;;;6.17;4.30;;;;;;;9.00;95.03;101224.27;1652535;85;26390;-80
2022/09/22 05:05:18;;;;;;;11.10;4.75;;;;;;;9.01;95.14;101226.45;1647100;84;27516;-80
2022/09/22 05:07:53;;;;;;;8.75;4.87;;;;;;;9.03;95.25;101223.13;1649069;84;25813;-79
2022/09/22 05:10:17;;;;;;;7.83;5.22;;;;;;;9.04;95.23;101224.31;1647181;85;26421;-81
2022/09/22 05:12:44;;;;;;;8.28;5.45;;;;;;;9.01;95.11;101225.12;1657750;85;25950;-80
2022/09/22 05:15:13;;;;;;;7.03;4.47;;;;;;;9.00;95.32;101224.80;1657163;84;25923;-80
2022/09/22 05:17:48;;;;;;;8.88;4.60;;;;;;;9.00;95.39;101228.28;1669079;85;27470;-79
2022/09/22 05:20:15;;;;;;;8.43;4.55;;;;;;;9.00;95.48;101227.47;1650124;85;26187;-80
2022/09/22 05:22:42;;;;;;;6.85;4.62;;;;;;;9.00;95.60;101230.95;1648952;85;25832;-79
2022/09/22 05:25:13;;;;;;;6.25;4.85;;;;;;;9.02;95.73;101228.14;1649886;85;26386;-80
2022/09/22 05:27:48;;;;;;;7.72;5.28;;;;;;;9.04;95.81;101229.66;1654932;85;25898;-82
2022/09/22 05:30:15;;;;;;;8.05;4.70;;;;;;;9.06;95.89;101237.02;1652732;84;27489;-80
2022/09/22 05:32:46;;;;;;;8.58;4.92;;;;;;;9.09;96.04;101231.82;1658394;84;25786;-80
2022/09/22 05:35:17;;;;;;;6.17;4.85;;;;;;;9.10;96.05;101233.02;1648002;85;25770;-80
2022/09/22 05:37:48;;;;;;;6.50;4.92;;;;;;;9.14;96.18;101234.37;1658017;84;25842;-80
2022/09/22 05:40:15;;;;;;;5.85;4.72;;;;;;;9.17;96.17;101235.36;1664558;84;25849;-80
2022/09/22 05:42:44;;;;;;;8.15;5.28;;;;;;;9.18;96.23;101234.38;1654292;85;27461;-79
2022/09/22 05:45:11;;;;;;;10.50;5.40;;;;;;;9.22;96.42;101235.72;1644997;85;26436;-80
2022/09/22 05:47:40;;;;;;;10.38;6.00;;;;;;;9.26;96.49;101235.73;1651494;85;25803;-79
2022/09/22 05:50:08;;;;;;;6.20;5.00;;;;;;;9.28;96.47;101239.08;1648056;85;26557;-81
2022/09/22 05:52:35;;;;;;;7.17;5.25;;;;;;;9.32;96.51;101242.28;1647428;85;25842;-79
2022/09/22 05:55:02;;;;;;;7.17;5.22;;;;;;;9.36;96.58;101238.77;1651939;84;27547;-80
2022/09/22 05:57:30;;;;;;;7.33;5.53;;;;;;;9.39;96.51;101242.47;1650953;84;25901;-79
2022/09/22 05:59:57;;;;;;;5.83;4.60;;;;;;;9.39;96.56;101249.97;1660906;84;26455;-79
2022/09/22 06:02:24;;;;;;;8.15;5.40;;;;;;;9.42;96.63;101243.45;1649341;85;26508;-81
2022/09/22 06:04:51;;;;;;;9.43;5.22;;;;;;;9.43;96.67;101247.82;1660349;84;25353;-81
2022/09/22 06:07:22;;;;;;;7.42;4.75;;;;;;;9.43;96.64;101243.81;1652053;85;27527;-80
2022/09/22 06:09:49;;;;;;;8.80;5.42;;;;;;;9.45;96.83;101234.63;1648303;84;25560;-80
2022/09/22 06:12:17;;;;;;;7.72;5.67;;;;;;;9.49;97.09;101238.64;1654765;84;25792;-79
2022/09/22 06:14:43;;;;;;;7.80;5.45;;;;;;;9.54;97.25;101233.63;1662406;84;26160;-79
2022/09/22 06:17:11;;;;;;;7.20;6.08;;;;;;;9.59;97.30;101237.14;1656291;85;25362;-80
2022/09/22 06:19:38;;;;;;;9.08;6.62;;;;;;;9.62;97.29;101238.16;1654785;85;27463;-80
2022/09/22 06:22:07;;;;;;;10.23;6.20;;;;;;;9.65;97.45;101234.64;1656516;85;25325;-80
2022/09/22 06:24:33;;;;;;;9.68;6.70;;;;;;;9.71;97.57;101234.50;1659652;85;25929;-81
2022/09/22 06:26:59;;;;;;;8.28;6.87;;;;;;;9.76;97.57;101235.66;1651670;85;26494;-79
2022/09/22 06:29:27;;;;;;;8.58;6.50;;;;;;;9.81;97.71;101245.38;1666637;85;25804;-80
2022/09/22 06:31:53;;;;;;;10.65;7.17;;;;;;;9.84;97.74;101245.03;1648739;85;27474;-80
2022/09/22 06:34:19;;;;;;;8.53;7.20;;;;;;;9.89;97.95;101245.38;1664602;85;25871;-81
2022/09/22 06:36:46;;;;;;;11.95;8.03;;;;;;;9.92;97.97;101251.72;1667747;85;26073;-80
2022/09/22 06:39:13;;;;;;;9.48;7.33;;;;;;;9.96;98.10;101249.07;1669062;85;25873;-80
2022/09/22 06:41:39;;;;;;;15.48;8.08;;;;;;;10.02;98.21;101250.23;1651166;85;25346;-80
2022/09/22 06:44:09;;;;;;;9.63;7.25;;;;;;;10.05;98.25;101249.38;1657492;84;28301;-79
2022/09/22 06:46:36;;;;;;;14.90;8.40;;;;;;;10.06;98.25;101248.39;1647068;85;25931;-80
2022/09/22 06:49:03;;;;;;;12.93;9.08;;;;;;;10.07;98.30;101249.23;1620561;87;26504;-79
2022/09/22 06:51:33;;;;;;;11.80;8.93;;;;;;;10.12;98.54;101250.92;1607543;87;26335;-79
2022/09/22 06:54:03;;;;;;;11.57;9.03;;;;;;;10.17;98.67;101247.74;1617277;87;25874;-80
2022/09/22 06:56:34;;;;;;;15.25;10.53;;;;;;;10.22;98.83;101247.59;1586322;87;28344;-80
2022/09/22 06:59:01;;;;;;;14.60;10.38;;;;;;;10.27;99.07;101243.87;1645939;85;25297;-80
2022/09/22 07:01:29;;;;;;;13.58;10.60;;;;;;;10.36;99.31;101252.74;1643771;85;25876;-79
2022/09/22 07:03:55;;;;;;;17.30;11.43;;;;;;;10.40;99.17;101250.05;1650865;85;25847;-80
2022/09/22 07:06:21;;;;;;;14.10;10.65;;;;;;;10.45;99.24;101249.05;1645086;85;25797;-80
2022/09/22 07:08:48;;;;;;;15.58;11.78;;;;;;;10.48;99.17;101254.05;1645196;85;27651;-79
2022/09/22 07:11:18;;;;;;;13.78;10.25;;;;;;;10.57;99.56;101249.02;1611584;87;26432;-79
2022/09/22 07:13:45;;;;;;;12.50;11.20;;;;;;;10.62;99.13;101253.38;1614874;86;25823;-81
2022/09/22 07:16:15;;;;;;;15.08;12.37;;;;;;;10.66;99.06;101250.18;1602591;88;25933;-79
2022/09/22 07:18:45;;;;;;;12.55;9.55;;;;;;;10.72;99.20;101252.66;1661839;84;25517;-80
2022/09/22 07:21:21;;;;;;;14.58;10.53;;;;;;;10.80;99.45;101255.31;1655990;84;27453;-80
2022/09/22 07:23:51;;;;;;;15.40;10.48;;;;;;;10.87;99.36;101254.97;1653300;85;25895;-80
2022/09/22 07:26:22;;;;;;;16.40;10.85;;;;;;;10.95;99.51;101252.25;1647871;85;26201;-80
2022/09/22 07:28:55;;;;;;;15.18;11.40;;;;;;;11.00;99.29;101249.05;1655376;84;25840;-80
2022/09/22 07:31:22;;;;;;;13.22;11.03;;;;;;;11.07;99.49;101246.86;1655978;84;25858;-80
2022/09/22 07:33:48;;;;;;;14.50;10.32;;;;;;;11.14;99.56;101257.20;1652238;85;28340;-81
2022/09/22 07:36:19;;;;;;;15.10;11.55;;;;;;;11.21;99.57;101259.52;1653581;85;25883;-81
2022/09/22 07:38:48;;;;;;;13.78;10.95;;;;;;;11.25;99.28;101259.50;1658783;84;26033;-80
2022/09/22 07:41:19;;;;;;;14.83;11.55;;;;;;;11.27;98.96;101259.34;1646993;85;25932;-82
2022/09/22 07:43:49;;;;;;;13.18;10.65;;;;;;;11.30;98.65;101257.64;1659068;85;25914;-82
2022/09/22 07:46:16;;;;;;;13.45;11.53;;;;;;;11.37;99.00;101255.94;1649201;85;26953;-81
2022/09/22 07:48:45;;;;;;;13.00;10.88;;;;;;;11.40;98.53;101255.56;1651605;85;25943;-82
2022/09/22 07:51:23;;;;;;;14.07;11.53;;;;;;;11.42;98.30;101249.02;1650416;85;25338;-82
2022/09/22 07:54:05;;;;;;;12.58;10.65;;;;;;;11.48;98.58;101254.20;1656717;85;25883;-83
2022/09/22 07:56:22;;;;;;;13.68;10.82;;;;;;;11.57;98.98;101262.50;1657674;85;25930;-82
2022/09/22 07:58:52;;;;;;;14.95;11.50;;;;;;;11.64;98.87;101262.14;1657215;85;26927;-81
2022/09/22 08:01:25;;;;;;;14.00;11.28;;;;;;;11.65;98.03;101263.82;1662580;85;26519;-82
2022/09/22 08:03:51;;;;;;;14.20;11.48;;;;;;;11.73;98.62;101257.08;1649923;85;25891;-82
2022/09/22 08:06:19;;;;;;;13.15;10.55;;;;;;;11.81;97.85;101258.86;1659679;85;26328;-82
2022/09/22 08:08:54;;;;;;;13.70;10.55;;;;;;;11.88;97.70;101255.80;1659175;85;25648;-82
2022/09/22 08:11:24;;;;;;;15.35;10.70;;;;;;;11.94;97.81;101250.55;1658082;85;27493;-83
2022/09/22 08:13:59;;;;;;;12.95;9.88;;;;;;;12.01;97.22;101256.87;1651338;85;25906;-81
2022/09/22 08:16:32;;;;;;;12.10;10.15;;;;;;;12.05;96.85;101255.50;1668963;85;25810;-82
2022/09/22 08:19:09;;;;;;;12.30;10.48;;;;;;;12.11;96.67;101253.93;1660946;85;25865;-81
2022/09/22 08:21:34;;;;;;;12.20;9.00;;;;;;;12.18;96.92;101259.76;1648230;85;25339;-81
2022/09/22 08:24:05;;;;;;;10.18;9.08;;;;;;;12.25;96.50;101253.97;1649483;85;27478;-82
2022/09/22 08:26:31;;;;;;;;;;;;;;;12.30;95.91;101256.11;1649995;85;25799;-81
2022/09/22 08:28:57;;;;;;;12.63;8.78;;;;;;;12.33;95.59;101255.26;1651673;85;25794;-81
2022/09/22 08:31:26;;;;;;;10.43;9.30;;;;;;;12.32;95.27;101253.57;1651271;85;26347;-82
2022/09/22 08:33:54;;;;;;;13.15;9.38;;;;;;;12.41;95.59;101252.98;1652249;85;25940;-81
2022/09/22 08:36:23;;;;;;;10.78;9.45;;;;;;;12.50;95.21;101259.96;1649836;85;27455;-80
2022/09/22 08:38:50;;;;;;;15.48;10.48;;;;;;;12.58;95.28;101257.69;1653528;85;25350;-81
2022/09/22 08:41:58;;;;;;;12.58;9.63;;;;;;;12.72;95.17;101256.88;1647625;85;25763;-81
2022/09/22 08:44:37;;;;;;;12.40;8.78;;;;;;;12.86;95.58;101262.77;1633222;86;26451;-81
2022/09/22 08:47:03;;;;;;;10.30;8.93;;;;;;;12.98;94.87;101266.14;1622098;85;26216;-81
2022/09/22 08:52:47;;;;;;;7.83;7.03;;;;;;;13.06;94.10;101261.22;1639882;84;26433;-82
2022/09/22 08:55:23;;;;;;;8.43;7.60;;;;;;;13.06;93.41;101263.91;1643714;84;26083;-80
2022/09/22 08:58:07;;;;;;;10.03;7.42;;;;;;;13.11;93.32;101258.28;1622491;87;26424;-82
2022/09/22 09:00:41;;;;;;;9.48;7.28;;;;;;;13.15;92.88;101254.19;1584532;89;25837;-83
2022/09/22 09:03:31;;;;;;;9.45;7.53;;;;;;;13.24;93.07;101259.50;1648708;85;28406;-82
2022/09/22 09:06:08;;;;;;;7.78;6.97;;;;;;;13.28;92.03;101253.52;1644877;85;25785;-82
2022/09/22 09:09:12;;;;;;;8.80;7.30;;;;;;;13.29;91.63;101248.98;1645860;85;26529;-82
2022/09/22 09:12:02;;;;;;;8.00;6.72;;;;;;;13.32;91.50;101253.50;1639615;85;25936;-84
2022/09/22 09:14:40;;;;;;;9.20;6.25;;;;;;;13.28;90.22;101250.83;1610572;86;25844;-82
2022/09/22 09:17:20;;;;;;;8.18;6.60;;;;;;;13.32;90.71;101244.58;1618760;85;27638;-81
2022/09/22 09:19:54;;;;;;;7.28;6.33;;;;;;;13.42;91.56;101244.60;1631766;86;25881;-82
2022/09/22 09:22:26;;;;;;;8.45;6.65;;;;;;;13.50;90.47;101242.30;1582410;88;25895;-82
2022/09/22 09:25:10;;;;;;;7.95;6.70;;;;;;;13.59;90.52;101234.43;1647171;84;25886;-82
2022/09/22 09:27:45;;;;;;;6.67;5.35;;;;;;;13.77;91.46;101237.53;1646758;85;25887;-80
2022/09/22 09:30:20;;;;;;;6.85;5.42;;;;;;;13.83;89.53;101234.06;1653152;84;27441;-81
2022/09/22 09:33:00;;;;;;;6.67;4.97;;;;;;;13.82;88.42;101235.08;1652007;84;25750;-82
2022/09/22 09:35:47;;;;;;;7.20;4.75;;;;;;;13.82;87.87;101233.23;1649410;84;25912;-82
2022/09/22 09:38:16;;;;;;;6.50;5.22;;;;;;;13.85;87.53;101236.05;1649514;84;25893;-82
2022/09/22 09:40:57;;;;;;;7.25;5.20;;;;;;;13.93;87.82;101230.53;1620251;86;26114;-81
2022/09/22 09:43:26;;;;;;;;;;;;;;;13.98;87.38;101233.48;1613555;87;27636;-82
2022/09/22 09:46:04;;;;;;;5.25;4.72;;;;;;;14.04;87.49;101227.33;1618414;87;25730;-81
2022/09/22 09:48:36;;;;;;;4.55;4.15;;;;;;;14.07;87.71;101221.53;1660521;84;25832;-81
2022/09/22 09:51:07;;;;;;;3.05;2.52;;;;;;;14.14;86.55;101218.89;1640500;85;26581;-81
2022/09/22 09:53:42;;;;;;;4.60;2.80;;;;;;;14.18;84.67;101222.89;1643534;84;25866;-81
2022/09/22 09:56:27;;;;;;;3.75;3.30;;;;;;;14.25;84.26;101221.91;1658032;85;28377;-81
2022/09/22 10:01:53;;;;;;;6.08;4.42;;;;;;;14.44;83.29;101206.92;1651627;85;25939;-81
2022/09/22 10:04:32;;;;;;;4.40;3.40;;;;;;;14.50;83.30;101218.27;1651591;85;25798;-82
2022/09/22 10:07:19;;;;;;;3.62;3.12;;;;;;;14.48;81.83;101218.47;1667457;85;25987;-81
2022/09/22 10:09:49;;;;;;;5.25;3.05;;;;;;;14.44;81.11;101217.20;1661995;85;27470;-81
2022/09/22 10:12:24;;;;;;;3.50;2.83;;;;;;;14.45;81.27;101214.00;1648324;85;25634;-82
2022/09/22 10:14:57;;;;;;;8.15;3.40;;;;;;;14.47;80.87;101215.98;1656524;85;25816;-81
2022/09/22 10:17:32;;;;;;;5.15;3.33;;;;;;;14.43;80.36;101218.76;1647965;85;26488;-82
2022/09/22 10:20:21;;;;;;;3.92;2.80;;;;;;;14.41;80.62;101220.28;1647319;85;25920;-82
2022/09/22 10:22:48;;;;;;;3.80;2.62;;;;;;;14.36;79.65;101219.21;1651146;85;27644;-82
2022/09/22 10:25:25;;;;;;;2.22;2.02;;;;;;;14.29;79.39;101223.71;1645595;85;26007;-82
2022/09/22 10:28:05;;;;;;;1.85;1.75;;;;;;;14.23;78.49;101224.47;1648784;84;25742;-81
2022/09/22 10:30:36;;;;;;;4.30;2.35;;;;;;;14.15;78.28;101227.31;1661653;84;26349;-80
2022/09/22 10:33:17;;;;;;;3.67;3.12;;;;;;;14.07;78.31;101231.50;1659990;84;25770;-82
2022/09/22 10:36:04;;;;;;;4.40;3.17;;;;;;;14.00;78.68;101230.59;1657550;85;27461;-81
2022/09/22 10:38:38;;;;;;;3.65;2.70;;;;;;;13.92;79.37;101235.08;1648346;85;26075;-82
2022/09/22 10:41:16;;;;;;;3.52;3.22;;;;;;;13.83;79.86;101236.77;1621615;86;26385;-81
2022/09/22 10:43:59;;;;;;;7.50;3.37;;;;;;;13.74;80.04;101233.36;1607006;87;25836;-79
2022/09/22 10:46:34;;;;;;;3.67;3.37;;;;;;;13.70;79.91;101240.16;1623243;86;26414;-82
2022/09/22 10:49:32;;;;;;;3.30;3.00;;;;;;;13.74;80.34;101230.67;1611789;86;28220;-81
2022/09/22 10:52:22;;;;;;;3.87;3.22;;;;;;;13.86;80.53;101229.13;1645534;85;25958;-82
2022/09/22 10:55:12;;;;;;;3.58;3.27;;;;;;;14.04;79.47;101223.28;1651941;84;26286;-79
2022/09/22 10:57:57;;;;;;;2.95;2.70;;;;;;;14.21;78.88;101208.50;1665279;84;26164;-79
2022/09/22 11:00:26;;;;;;;2.08;1.87;;;;;;;14.33;77.58;101205.61;1648936;84;25817;-78
2022/09/22 11:03:27;;;;;;;2.40;1.77;;;;;;;14.41;77.25;101201.41;1622526;87;28292;-80
2022/09/22 11:12:15;;;;;;;4.70;2.05;;;;;;;14.55;74.20;101208.58;1868062;75;25722;-79
2022/09/22 11:15:12;;;;;;;2.95;2.45;;;;;;;14.47;73.52;101218.67;1849276;77;26012;-79
2022/09/22 11:17:56;;;;;;;1.67;1.57;;;;;;;14.35;73.44;101217.02;1840724;77;27520;-81
2022/09/22 11:20:44;;;;;;;3.62;2.10;;;;;;;14.25;73.17;101221.91;1830923;77;25843;-80
2022/09/22 11:23:42;;;;;;;2.83;1.70;;;;;;;14.16;73.12;101215.48;1847896;77;25752;-81
2022/09/22 11:26:49;;;;;;;2.02;1.90;;;;;;;14.08;72.65;101216.47;1848511;77;25240;-81
2022/09/22 11:29:45;;;;;;;1.75;1.65;;;;;;;14.00;73.22;101216.63;1849642;77;25865;-80
2022/09/22 11:32:45;;;;;;;2.22;1.98;;;;;;;13.98;73.97;101217.33;1845038;76;27578;-80
2022/09/22 11:35:43;;;;;;;1.70;1.60;;;;;;;13.99;73.81;101218.98;1828295;77;25886;-80
2022/09/22 11:38:40;;;;;;;2.80;2.50;;;;;;;14.00;74.17;101220.66;1828830;77;25781;-81
2022/09/22 11:41:24;;;;;;;3.05;1.92;;;;;;;14.00;74.36;101217.13;1837877;77;26060;-83
2022/09/22 11:44:14;;;;;;;3.87;1.92;;;;;;;14.03;74.76;101218.09;1831734;77;25838;-82
2022/09/22 11:47:07;;;;;;;2.95;2.37;;;;;;;14.07;75.34;101214.80;1755300;80;27586;-81
2022/09/22 11:49:48;;;;;;;2.35;2.15;;;;;;;14.13;75.80;101213.20;1826027;77;26017;-81
2022/09/22 11:52:42;;;;;;;2.12;1.92;;;;;;;14.15;75.45;101213.84;1832016;77;34881;-82
2022/09/22 11:55:19;;;;;;;1.82;1.72;;;;;;;14.15;75.20;101210.64;1821236;77;25770;-82
2022/09/22 11:57:50;;;;;;;2.80;1.65;;;;;;;14.14;74.60;101207.61;1831880;77;25928;-82
2022/09/22 12:00:20;;;;;;;;;;;;;;;14.15;74.53;101204.41;1841535;76;27508;-83
2022/09/22 12:03:15;;;;;;;2.17;1.70;;;;;;;14.14;74.27;101205.42;1838498;77;25882;-84
2022/09/22 12:05:59;;;;;;;3.70;1.52;;;;;;;14.11;74.31;101199.94;1832553;77;25757;-82
2022/09/22 12:08:37;;;;;;;1.50;1.40;;;;;;;14.10;73.94;101199.59;1847366;75;26137;-81